»·PEaware :: N319TB KCLR-KSNA

N319TB :: KCLR-KSNA

FLIGHT INFORMATION

Flight Status: Arrived
Operator: Privately registered:
United States
More flights under this callsign
Pilot: Gavin S. (2922)
Aircraft: SOCATA TBM-900
(TBM9)
More flights by this aircraft type
Origin: KCLR Cliff Hatfield Meml
United States
Destination: KSNA John Wayne-Orange Co
United States
More flights between these airports :: More routes between these airports
Route: +PSP KAYOH7
File this flight plan on PilotEdge
Remarks:
Altitude:
(Current/Filed)
280ft
Speed:
(Current/Filed)
260kts
Departed: 02-Dec-18 09:58 AM
Arrived: 02-Dec-18 11:00 AM
Distance/Time
Traveled:
122nm/1:02
Distance/Time
To Go:
Arrived

Flight Plot

Page will automatically refresh every two minutes.

Flight plan parsing failed; only flown route is shown


Map Options




Map Legend


Flown Route
Filed Route
Departure Airport
Arrival Airport
Navaid (VOR, NDB)
Fix

Horizontal Profiles

Position Reports

Time Latitude Longitude Heading Altitude Ground
Speed
02-Dec-18 09:42 33.131454 -115.521515 255 -178ft 0kts
02-Dec-18 09:43 33.131454 -115.521515 255 -178ft 0kts
02-Dec-18 09:44 33.131454 -115.521515 255 -178ft 0kts
02-Dec-18 09:45 33.131454 -115.521515 255 -178ft 0kts
02-Dec-18 09:46 33.131454 -115.521515 255 -178ft 0kts
02-Dec-18 09:47 33.131454 -115.521515 255 -178ft 0kts
02-Dec-18 09:48 33.131454 -115.521515 255 -178ft 0kts
02-Dec-18 09:49 33.131454 -115.521515 255 -178ft 0kts
02-Dec-18 09:50 33.131454 -115.521515 255 -178ft 0kts
02-Dec-18 09:51 33.131454 -115.521515 255 -178ft 0kts
02-Dec-18 09:52 33.131454 -115.521515 255 -178ft 0kts
02-Dec-18 09:53 33.131454 -115.521515 256 -178ft 0kts
02-Dec-18 09:54 33.131454 -115.521515 256 -178ft 0kts
02-Dec-18 09:55 33.131454 -115.521515 256 -178ft 0kts
02-Dec-18 09:56 33.131454 -115.521515 256 -178ft 0kts
02-Dec-18 09:57 33.131454 -115.521515 256 -178ft 0kts
02-Dec-18 09:58 33.131454 -115.521515 256 -178ft 0kts
02-Dec-18 09:59 33.131335 -115.519290 88 -178ft 29kts
02-Dec-18 10:00 33.131297 -115.517435 268 -178ft 0kts
02-Dec-18 10:01 33.131349 -115.524397 270 -118ft 95kts
02-Dec-18 10:02 33.137555 -115.560784 327 1264ft 126kts
02-Dec-18 10:03 33.167639 -115.579773 340 2964ft 121kts
02-Dec-18 10:04 33.194772 -115.601007 312 4649ft 117kts
02-Dec-18 10:05 33.216998 -115.627552 312 6617ft 112kts
02-Dec-18 10:06 33.247356 -115.664269 312 5165ft 179kts
02-Dec-18 10:07 33.282491 -115.707021 312 5158ft 179kts
02-Dec-18 10:08 33.317547 -115.749747 313 5158ft 179kts
02-Dec-18 10:09 33.352246 -115.792096 315 5185ft 179kts
02-Dec-18 10:10 33.381904 -115.828310 314 6867ft 116kts
02-Dec-18 10:11 33.403589 -115.854868 314 8718ft 110kts
02-Dec-18 10:12 33.424503 -115.880416 313 10536ft 108kts
02-Dec-18 10:13 33.445082 -115.905563 312 12338ft 106kts
02-Dec-18 10:14 33.465078 -115.930068 311 14225ft 101kts
02-Dec-18 10:15 33.484310 -115.953657 310 15944ft 100kts
02-Dec-18 10:16 33.503870 -115.977585 310 17560ft 107kts
02-Dec-18 10:17 33.525379 -116.003882 310 19039ft 112kts
02-Dec-18 10:18 33.547057 -116.030534 309 20373ft 112kts
02-Dec-18 10:19 33.568868 -116.057376 308 21504ft 115kts
02-Dec-18 10:20 33.594991 -116.089552 309 21982ft 140kts
02-Dec-18 10:21 33.622056 -116.122879 308 22765ft 140kts
02-Dec-18 10:22 33.650211 -116.157630 308 23079ft 154kts
02-Dec-18 10:23 33.681050 -116.195679 309 23072ft 162kts
02-Dec-18 10:24 33.712640 -116.234702 309 23069ft 164kts
02-Dec-18 10:25 33.746686 -116.276834 309 22200ft 181kts
02-Dec-18 10:26 33.781940 -116.320487 310 21360ft 182kts
02-Dec-18 10:27 33.817536 -116.364625 310 20542ft 183kts
02-Dec-18 10:28 33.853242 -116.408955 310 19728ft 186kts
02-Dec-18 10:29 33.871351 -116.464366 281 18899ft 187kts
02-Dec-18 10:30 33.874651 -116.527231 280 18069ft 188kts
02-Dec-18 10:31 33.877663 -116.590090 280 17243ft 190kts
02-Dec-18 10:32 33.880627 -116.653308 279 16414ft 193kts
02-Dec-18 10:33 33.883940 -116.723877 278 15529ft 240kts
02-Dec-18 10:34 33.887671 -116.806486 278 14394ft 249kts
02-Dec-18 10:35 33.877610 -116.885095 257 13999ft 234kts
02-Dec-18 10:36 33.851875 -116.961884 255 12565ft 258kts
02-Dec-18 10:37 33.824319 -117.043723 253 11077ft 264kts
02-Dec-18 10:38 33.797641 -117.122323 254 10985ft 253kts
02-Dec-18 10:39 33.776419 -117.202297 274 10777ft 247kts
02-Dec-18 10:40 33.777481 -117.284284 271 9615ft 242kts
02-Dec-18 10:41 33.778294 -117.365749 274 8388ft 245kts
02-Dec-18 10:42 33.779090 -117.449679 275 7987ft 244kts
02-Dec-18 10:43 33.779794 -117.526753 275 7986ft 227kts
02-Dec-18 10:44 33.780446 -117.602600 275 7992ft 227kts
02-Dec-18 10:45 33.783187 -117.677870 297 7883ft 226kts
02-Dec-18 10:46 33.812836 -117.741608 301 6874ft 207kts
02-Dec-18 10:47 33.839932 -117.797189 301 5525ft 186kts
02-Dec-18 10:48 33.873835 -117.789144 96 4993ft 193kts
02-Dec-18 10:49 33.827597 -117.773985 190 4997ft 200kts
02-Dec-18 10:50 33.773024 -117.785536 215 4970ft 203kts
02-Dec-18 10:51 33.790055 -117.821531 10 4274ft 168kts
02-Dec-18 10:52 33.824336 -117.804887 28 2963ft 112kts
02-Dec-18 10:53 33.811896 -117.780366 207 2995ft 132kts
02-Dec-18 10:54 33.786101 -117.813811 237 2821ft 149kts
02-Dec-18 10:55 33.761299 -117.850675 196 1816ft 145kts
02-Dec-18 10:56 33.725763 -117.864837 200 1082ft 135kts
02-Dec-18 10:57 33.696585 -117.892093 210 980ft 141kts
02-Dec-18 10:58 33.665614 -117.887531 14 1292ft 143kts
02-Dec-18 10:59 33.708076 -117.880707 10 1390ft 166kts
02-Dec-18 11:00 33.735521 -117.851244 113 1386ft 161kts
02-Dec-18 11:01 33.703596 -117.849738 209 931ft 92kts
02-Dec-18 11:02 33.683094 -117.864092 210 87ft 69kts
02-Dec-18 11:03 33.678112 -117.868571 283 59ft 0kts
02-Dec-18 11:04 33.678112 -117.868571 283 59ft 0kts
02-Dec-18 11:05 33.678292 -117.869342 296 59ft 0kts
02-Dec-18 11:06 33.678292 -117.869342 296 59ft 0kts
02-Dec-18 11:07 33.678292 -117.869342 296 59ft 0kts

Navigation Log

Ident Type
Flight plan parsing failed, navigation log unavailable